<?xml version="1.0" encoding="utf-8"?>
<gpx xmlns:xsi="http://www.w3.org/2001/XMLSchema-instance" xmlns:xsd="http://www.w3.org/2001/XMLSchema" version="1.1" creator="Shapelink.com" xmlns="http://www.topografix.com/GPX/1/1" xmlns:gpxtpx="http://www.garmin.com/xmlschemas/TrackPointExtension/v1">
  <metadata>
    <name>Ejecutar 0.50 km, 2020-04-02</name>
    <desc></desc>
    <author><name>Per Rooth</name></author> 
    <time>2020-04-02T18:11:33Z</time>
  </metadata>
  <trk>
    <name>Ejecutar 0.50 km, 2020-04-02</name>
    <trkseg>
      <trkpt lat="56.891405206221" lon="14.823966573263">
        <ele>173.6</ele>
        <time>2020-04-02T18:11:33Z</time>
      </trkpt>
      <trkpt lat="56.891425155143" lon="14.823932039835">
        <ele>172.6</ele>
        <time>2020-04-02T18:11:34Z</time>
      </trkpt>
      <trkpt lat="56.891447618635" lon="14.823918796433">
        <ele>172.8</ele>
        <time>2020-04-02T18:11:35Z</time>
      </trkpt>
      <trkpt lat="56.891491707429" lon="14.823922065374">
        <ele>172.6</ele>
        <time>2020-04-02T18:11:38Z</time>
      </trkpt>
      <trkpt lat="56.89151593112" lon="14.823864314083">
        <ele>172.2</ele>
        <time>2020-04-02T18:11:40Z</time>
      </trkpt>
      <trkpt lat="56.891589188926" lon="14.8237505717">
        <ele>171.6</ele>
        <time>2020-04-02T18:11:43Z</time>
      </trkpt>
      <trkpt lat="56.891773590726" lon="14.82370782401">
        <ele>170.6</ele>
        <time>2020-04-02T18:11:49Z</time>
      </trkpt>
      <trkpt lat="56.891793707286" lon="14.823695670255">
        <ele>170.6</ele>
        <time>2020-04-02T18:11:51Z</time>
      </trkpt>
      <trkpt lat="56.891782643178" lon="14.823663567578">
        <ele>170.8</ele>
        <time>2020-04-02T18:11:53Z</time>
      </trkpt>
      <trkpt lat="56.891764957369" lon="14.823643199561">
        <ele>170.6</ele>
        <time>2020-04-02T18:11:55Z</time>
      </trkpt>
      <trkpt lat="56.891758838582" lon="14.823624927019">
        <ele>170.4</ele>
        <time>2020-04-02T18:11:56Z</time>
      </trkpt>
      <trkpt lat="56.891837376985" lon="14.823266265518">
        <ele>170.4</ele>
        <time>2020-04-02T18:12:03Z</time>
      </trkpt>
      <trkpt lat="56.89187719101" lon="14.823152858411">
        <ele>171.2</ele>
        <time>2020-04-02T18:12:05Z</time>
      </trkpt>
      <trkpt lat="56.891913316999" lon="14.823126371607">
        <ele>172</ele>
        <time>2020-04-02T18:12:06Z</time>
      </trkpt>
      <trkpt lat="56.892075674402" lon="14.823073146542">
        <ele>173</ele>
        <time>2020-04-02T18:12:10Z</time>
      </trkpt>
      <trkpt lat="56.892273990156" lon="14.82302218459">
        <ele>174.2</ele>
        <time>2020-04-02T18:12:15Z</time>
      </trkpt>
      <trkpt lat="56.892479933439" lon="14.822987734981">
        <ele>173.6</ele>
        <time>2020-04-02T18:12:20Z</time>
      </trkpt>
      <trkpt lat="56.892517987265" lon="14.822998044718">
        <ele>173.2</ele>
        <time>2020-04-02T18:12:21Z</time>
      </trkpt>
      <trkpt lat="56.892541288947" lon="14.823031656137">
        <ele>172.6</ele>
        <time>2020-04-02T18:12:22Z</time>
      </trkpt>
      <trkpt lat="56.892538774377" lon="14.823426108351">
        <ele>172.4</ele>
        <time>2020-04-02T18:12:28Z</time>
      </trkpt>
      <trkpt lat="56.89258127061" lon="14.823528618988">
        <ele>172</ele>
        <time>2020-04-02T18:12:30Z</time>
      </trkpt>
      <trkpt lat="56.892688307473" lon="14.823571031402">
        <ele>171.4</ele>
        <time>2020-04-02T18:12:33Z</time>
      </trkpt>
      <trkpt lat="56.892794254689" lon="14.823594165446">
        <ele>171.4</ele>
        <time>2020-04-02T18:12:36Z</time>
      </trkpt>
      <trkpt lat="56.892865081744" lon="14.823940421735">
        <ele>170.8</ele>
        <time>2020-04-02T18:12:44Z</time>
      </trkpt>
      <trkpt lat="56.892874050377" lon="14.824019379233">
        <ele>170.2</ele>
        <time>2020-04-02T18:12:46Z</time>
      </trkpt>
      <trkpt lat="56.892885617399" lon="14.824047123322">
        <ele>170</ele>
        <time>2020-04-02T18:12:48Z</time>
      </trkpt>
      <trkpt lat="56.892929538555" lon="14.82406656933">
        <ele>169.8</ele>
        <time>2020-04-02T18:12:50Z</time>
      </trkpt>
      <trkpt lat="56.89311687402" lon="14.824108059735">
        <ele>170.4</ele>
        <time>2020-04-02T18:12:56Z</time>
      </trkpt>
      <trkpt lat="56.893143779919" lon="14.824373933603">
        <ele>171</ele>
        <time>2020-04-02T18:13:01Z</time>
      </trkpt>
      <trkpt lat="56.893065409154" lon="14.82443202017">
        <ele>171</ele>
        <time>2020-04-02T18:13:05Z</time>
      </trkpt>
      <trkpt lat="56.893093237062" lon="14.824544589087">
        <ele>171</ele>
        <time>2020-04-02T18:13:08Z</time>
      </trkpt>
      <trkpt lat="56.893283841468" lon="14.824526065088">
        <ele>171.2</ele>
        <time>2020-04-02T18:13:15Z</time>
      </trkpt>
      <trkpt lat="56.89347729572" lon="14.82449320804">
        <ele>171.2</ele>
        <time>2020-04-02T18:13:23Z</time>
      </trkpt>
      <trkpt lat="56.893554493019" lon="14.824516174446">
        <ele>171.2</ele>
        <time>2020-04-02T18:13:28Z</time>
      </trkpt>
      <trkpt lat="56.893553235734" lon="14.82452086831">
        <ele>171</ele>
        <time>2020-04-02T18:13:30Z</time>
      </trkpt>
      <trkpt lat="56.89352004341" lon="14.824450795626">
        <ele>171.2</ele>
        <time>2020-04-02T18:13:34Z</time>
      </trkpt>
      <trkpt lat="56.893553654829" lon="14.824318696882">
        <ele>171</ele>
        <time>2020-04-02T18:13:36Z</time>
      </trkpt>
      <trkpt lat="56.89361140612" lon="14.824285420739">
        <ele>171</ele>
        <time>2020-04-02T18:13:38Z</time>
      </trkpt>
      <trkpt lat="56.893683658098" lon="14.824418273854">
        <ele>171</ele>
        <time>2020-04-02T18:13:42Z</time>
      </trkpt>
      <trkpt lat="56.893704193753" lon="14.824685237369">
        <ele>171.4</ele>
        <time>2020-04-02T18:13:48Z</time>
      </trkpt>
      <trkpt lat="56.893621045305" lon="14.82497516729">
        <ele>172.4</ele>
        <time>2020-04-02T18:13:54Z</time>
      </trkpt>
      <trkpt lat="56.893495400624" lon="14.825204328436">
        <ele>172.6</ele>
        <time>2020-04-02T18:14:00Z</time>
      </trkpt>
      <trkpt lat="56.893437649333" lon="14.825382779087">
        <ele>173.6</ele>
        <time>2020-04-02T18:14:05Z</time>
      </trkpt>
      <trkpt lat="56.893429686528" lon="14.825417228696">
        <ele>173.4</ele>
        <time>2020-04-02T18:14:06Z</time>
      </trkpt>
      <trkpt lat="56.893422394275" lon="14.825493336348">
        <ele>172.8</ele>
        <time>2020-04-02T18:14:08Z</time>
      </trkpt>
      <trkpt lat="56.893420801714" lon="14.825528875604">
        <ele>172.4</ele>
        <time>2020-04-02T18:14:09Z</time>
      </trkpt>
      <trkpt lat="56.893447288518" lon="14.825605905265">
        <ele>171.2</ele>
        <time>2020-04-02T18:14:11Z</time>
      </trkpt>
      <trkpt lat="56.89344628269" lon="14.825641863616">
        <ele>170</ele>
        <time>2020-04-02T18:14:13Z</time>
      </trkpt>
      <trkpt lat="56.893449048717" lon="14.825675391216">
        <ele>169.6</ele>
        <time>2020-04-02T18:14:16Z</time>
      </trkpt>
      <trkpt lat="56.89344209174" lon="14.825704979323">
        <ele>170.2</ele>
        <time>2020-04-02T18:14:18Z</time>
      </trkpt>
      <trkpt lat="56.893448042889" lon="14.825724173874">
        <ele>169.8</ele>
        <time>2020-04-02T18:14:42Z</time>
      </trkpt>
      <trkpt lat="56.893453491124" lon="14.825739093656">
        <ele>171.2</ele>
        <time>2020-04-02T18:14:48Z</time>
      </trkpt>
      <trkpt lat="56.893440750636" lon="14.825750409221">
        <ele>172.6</ele>
        <time>2020-04-02T18:14:49Z</time>
      </trkpt>
      <trkpt lat="56.893476792806" lon="14.825724425331">
        <ele>172.8</ele>
        <time>2020-04-02T18:14:59Z</time>
      </trkpt>
    </trkseg>
  </trk>
</gpx>